Overview Statistics Trail Chart Weather Telemetry Raw packets
 

This is the latest recevied weather packets stored in our database for station/object K7CTM. If no packets are shown the sender has not sent any weather packets the latest 10 day(s).

<< 1 2 3 4 5 6 >>
Time Temp. Humidity Pressure Rain* Wind** Luminosity Snow
1788612355 12.22° C 59% 1027.8 hPa 0 mm - 4 W/m² -
1788612051 12.22° C 60% 1027.9 hPa 0 mm - 3 W/m² -
1788611746 12.22° C 59% 1027.2 hPa 0 mm - 1 W/m² -
1788611443 13.33° C 57% 1027.5 hPa 0 mm - 1 W/m² -
1788611142 14.44° C 52% 1027.3 hPa 0 mm - 0 W/m² -
1788610837 14.44° C 52% 1027.3 hPa 0 mm - 0 W/m² -
1788610532 13.89° C 52% 1026.8 hPa 0 mm - 0 W/m² -
1788610227 13.89° C 52% 1026.9 hPa 0 mm - 0 W/m² -
1788609926 13.89° C 52% 1026.6 hPa 0 mm - 0 W/m² -
1788609622 13.89° C 53% 1026.9 hPa 0 mm - 0 W/m² -
1788609334 13.89° C 54% 1026.9 hPa 0 mm - 0 W/m² -
1788609016 13.89° C 54% 1026.8 hPa 0 mm - 0 W/m² -
1788608715 14.44° C 53% 1026.6 hPa 0 mm - 0 W/m² -
1788608414 14.44° C 52% 1026.4 hPa 0 mm - 0 W/m² -
1788608109 13.89° C 52% 1026.6 hPa 0 mm - 0 W/m² -
1788607804 13.33° C 55% 1026.5 hPa 0 mm - 0 W/m² -
1788607499 13.89° C 53% 1026.3 hPa 0 mm - 0 W/m² -
1788607195 13.89° C 54% 1026.2 hPa 0 mm - 0 W/m² -
1788606889 14.44° C 52% 1026.4 hPa 0 mm - 0 W/m² -
1788606584 15° C 51% 1026.4 hPa 0 mm - 0 W/m² -
1788606283 15° C 50% 1026.3 hPa 0 mm - 0 W/m² -
1788605983 15° C 52% 1026.3 hPa 0 mm - 0 W/m² -
1788605678 15° C 50% 1026.2 hPa 0 mm - 0 W/m² -
1788605377 15° C 50% 1026.1 hPa 0 mm - 0 W/m² -
1788605073 15.56° C 50% 1025.7 hPa 0 mm - 0 W/m² -

* Rain latest hour (hover to see other rain measurements)
** Current wind speed in m/s (hover to see current wind gust speed)